Terminal Aerodrome Forecast
Issued by NWS

Home | Current Version | Previous Version | Text Only | Print | Product List | Glossary On
Versions: 1 2 3 4 5 6 7 8 9 10 11 12 13 14 15 16 17 18 19 20 21 22 23 24 25 26
000
FTUS46 KLOX 192003 AAA
TAFSBA
TAF AMD
KSBA 192003Z 1920/2018 25012KT P6SM BKN025 BKN050
     FM192200 27014G22KT P6SM FEW050
     FM200200 29008KT P6SM SCT050 BKN100
     FM200800 VRB03KT P6SM SCT025 BKN050
     FM201200 10012KT 5SM -RA BR SCT015 OVC025
     FM201500 11015G25KT 2SM RA BR SCT007 OVC015=

USA.gov is the U.S. government's official web portal to all federal, state and local government web resources and services.